Time;durP1;ratioP1;P1;durP2;ratioP2;P2;SDS_P1;SDS_P2;PMS_P1;PMS_P2;Temp;Humidity;BMP_temperature;BMP_pressure;BME280_temperature;BME280_humidity;BME280_pressure;Samples;Min_cycle;Max_cycle;Signal;HPM_P1;HPM_P2
2023/01/11 00:00:45;;;;;;;7.10;3.85;;;;;;;8.29;100.00;100501.78;5071252;28;20048;-54
2023/01/11 00:03:16;;;;;;;6.82;3.38;;;;;;;8.35;100.00;100500.56;5071500;28;20052;-54
2023/01/11 00:05:45;;;;;;;6.00;3.70;;;;;;;8.39;100.00;100501.22;5072084;28;20119;-54
2023/01/11 00:08:13;;;;;;;8.88;4.10;;;;;;;8.39;100.00;100506.47;5072124;28;20048;-52
2023/01/11 00:10:41;;;;;;;6.20;3.35;;;;;;;8.38;100.00;100505.59;5072069;28;20123;-52
2023/01/11 00:13:09;;;;;;;8.60;3.70;;;;;;;8.38;100.00;100494.31;5072071;28;20441;-52
2023/01/11 00:15:39;;;;;;;8.75;3.67;;;;;;;8.42;100.00;100496.63;5072054;28;20053;-51
2023/01/11 00:18:07;;;;;;;7.05;3.47;;;;;;;8.46;100.00;100494.69;5071985;28;20051;-51
2023/01/11 00:20:39;;;;;;;8.02;3.75;;;;;;;8.52;100.00;100496.94;5069839;28;20441;-52
2023/01/11 00:23:08;;;;;;;6.88;3.40;;;;;;;8.50;100.00;100488.31;5068613;28;20102;-52
2023/01/11 00:25:36;;;;;;;8.48;3.78;;;;;;;8.56;100.00;100481.84;5071317;28;20052;-52
2023/01/11 00:28:06;;;;;;;9.10;3.50;;;;;;;8.55;100.00;100486.28;5070467;28;20472;-53
2023/01/11 00:30:35;;;;;;;9.07;3.80;;;;;;;8.63;100.00;100489.25;5071764;28;20044;-53
2023/01/11 00:33:03;;;;;;;7.53;3.63;;;;;;;8.62;100.00;100482.31;5070009;28;20772;-51
2023/01/11 00:35:32;;;;;;;8.77;3.92;;;;;;;8.60;100.00;100478.97;5071187;28;20135;-51
2023/01/11 00:38:01;;;;;;;8.18;3.47;;;;;;;8.67;100.00;100481.19;5071907;28;20040;-58
2023/01/11 00:40:29;;;;;;;8.70;3.65;;;;;;;8.67;100.00;100470.69;5070484;28;20102;-59
2023/01/11 00:48:43;;;;;;;8.63;3.10;;;;;;;8.71;100.00;100470.44;5071804;28;20056;-51
2023/01/11 00:51:11;;;;;;;8.30;3.58;;;;;;;8.75;100.00;100471.06;5071366;28;20119;-51
2023/01/11 00:53:40;;;;;;;6.03;3.00;;;;;;;8.76;100.00;100463.09;5074712;28;20040;-52
2023/01/11 00:56:08;;;;;;;5.65;3.10;;;;;;;8.77;100.00;100467.41;5072795;28;20550;-54
2023/01/11 00:58:36;;;;;;;7.03;3.78;;;;;;;8.79;100.00;100472.53;5071827;28;20086;-52
2023/01/11 01:01:06;;;;;;;8.80;3.15;;;;;;;8.79;100.00;100462.06;5074709;28;20045;-52
2023/01/11 01:03:35;;;;;;;5.65;2.90;;;;;;;8.77;100.00;100458.72;5075019;28;20072;-53
2023/01/11 01:06:03;;;;;;;7.75;3.30;;;;;;;8.78;100.00;100461.22;5075209;28;20055;-58
2023/01/11 01:08:32;;;;;;;7.03;2.97;;;;;;;8.75;100.00;100457.94;5075470;28;20132;-59
2023/01/11 01:11:01;;;;;;;7.70;3.40;;;;;;;8.77;100.00;100456.91;5075090;28;20495;-59
2023/01/11 01:16:15;;;;;;;6.97;3.70;;;;;;;8.78;100.00;100442.00;5075071;28;20174;-60
2023/01/11 01:18:43;;;;;;;6.00;2.90;;;;;;;8.81;100.00;100447.09;5074040;28;20053;-51
2023/01/11 01:21:13;;;;;;;5.45;3.10;;;;;;;8.80;100.00;100448.00;5075423;28;20089;-60
2023/01/11 01:23:41;;;;;;;6.72;3.20;;;;;;;8.80;100.00;100448.84;5072447;28;20040;-53
2023/01/11 01:26:11;;;;;;;6.60;3.30;;;;;;;8.81;100.00;100452.31;5071474;28;20049;-60
2023/01/11 01:28:39;;;;;;;9.93;3.20;;;;;;;8.81;100.00;100452.31;5074869;28;20062;-52
2023/01/11 01:31:08;;;;;;;6.03;3.35;;;;;;;8.83;100.00;100450.44;5074704;28;20068;-53
2023/01/11 01:33:36;;;;;;;9.02;3.00;;;;;;;8.85;100.00;100452.94;5075154;28;20402;-53
2023/01/11 01:36:05;;;;;;;5.82;3.20;;;;;;;8.87;100.00;100456.34;5074786;28;20407;-54
2023/01/11 01:38:33;;;;;;;6.13;2.92;;;;;;;8.86;100.00;100450.25;5074962;28;20083;-60
2023/01/11 01:41:01;;;;;;;5.95;2.97;;;;;;;8.87;100.00;100459.78;5074619;28;20056;-60
2023/01/11 01:46:27;;;;;;;6.72;3.10;;;;;;;8.87;100.00;100454.53;5130852;27;21194;-59
2023/01/11 01:48:59;;;;;;;6.82;3.33;;;;;;;8.96;100.00;100459.19;5127817;27;20043;-58
2023/01/11 01:51:34;;;;;;;8.65;3.42;;;;;;;8.96;100.00;100450.50;5128112;27;20043;-52
2023/01/11 01:54:06;;;;;;;5.88;3.35;;;;;;;8.96;100.00;100450.50;5128808;27;20046;-59
2023/01/11 01:56:39;;;;;;;7.60;3.30;;;;;;;8.94;100.00;100455.84;5127416;27;20055;-58
2023/01/11 01:59:12;;;;;;;5.63;3.42;;;;;;;8.98;100.00;100455.66;5130331;27;20044;-53
2023/01/11 02:01:48;;;;;;;6.88;3.35;;;;;;;9.02;100.00;100455.34;5125064;28;20051;-58
2023/01/11 02:04:23;;;;;;;6.35;2.92;;;;;;;9.04;100.00;100455.22;5128107;27;20130;-55
2023/01/11 02:06:56;;;;;;;6.00;2.85;;;;;;;9.09;100.00;100445.28;5129300;27;20055;-54
2023/01/11 02:09:31;;;;;;;4.97;2.80;;;;;;;9.07;100.00;100434.91;5127806;27;20102;-54
2023/01/11 02:12:02;;;;;;;5.05;3.13;;;;;;;9.08;100.00;100433.97;5130380;27;20366;-54
2023/01/11 02:14:32;;;;;;;6.00;2.60;;;;;;;9.09;100.00;100442.66;5130797;27;20039;-58
2023/01/11 02:17:01;;;;;;;5.00;2.42;;;;;;;9.15;100.00;100426.53;5130401;27;20122;-59
2023/01/11 02:19:43;;;;;;;5.35;2.55;;;;;;;9.15;100.00;100431.78;5128347;27;20123;-54
2023/01/11 02:22:32;;;;;;;5.35;2.55;;;;;;;9.18;100.00;100433.38;5127055;27;20059;-54
2023/01/11 02:25:24;;;;;;;6.57;2.83;;;;;;;9.18;100.00;100434.19;5130134;27;20053;-54
2023/01/11 02:28:07;;;;;;;4.65;2.60;;;;;;;9.19;100.00;100427.16;5130201;27;20070;-53
2023/01/11 02:30:43;;;;;;;6.15;2.25;;;;;;;9.19;100.00;100422.75;5129904;27;20156;-54
2023/01/11 02:33:23;;;;;;;4.07;2.40;;;;;;;9.25;100.00;100422.34;5128229;27;20052;-53
2023/01/11 02:36:02;;;;;;;3.70;2.00;;;;;;;9.23;100.00;100421.63;5126090;27;20430;-52
2023/01/11 02:38:35;;;;;;;4.03;2.40;;;;;;;9.23;100.00;100419.00;5128376;27;20054;-54
2023/01/11 02:41:10;;;;;;;3.63;1.98;;;;;;;9.24;100.00;100425.94;5129663;27;20050;-53
2023/01/11 02:46:45;;;;;;;5.93;2.03;;;;;;;9.27;100.00;100430.09;5129662;27;20044;-54
2023/01/11 02:49:20;;;;;;;4.15;2.10;;;;;;;9.28;100.00;100411.66;5129821;27;20049;-52
2023/01/11 02:51:54;;;;;;;5.72;2.17;;;;;;;9.29;100.00;100423.81;5124796;27;20055;-54
2023/01/11 02:54:24;;;;;;;3.25;2.08;;;;;;;9.30;100.00;100420.25;5125743;28;20108;-53
2023/01/11 02:56:58;;;;;;;3.80;2.05;;;;;;;9.35;100.00;100419.13;5118895;27;20052;-54
2023/01/11 02:59:32;;;;;;;3.90;2.13;;;;;;;9.36;100.00;100426.88;5112610;28;20516;-54
2023/01/11 03:02:01;;;;;;;4.65;2.00;;;;;;;9.39;100.00;100418.78;5114793;28;20093;-54
2023/01/11 03:04:31;;;;;;;4.93;2.17;;;;;;;9.37;100.00;100414.63;5114708;28;20044;-54
2023/01/11 03:07:16;;;;;;;6.00;2.20;;;;;;;9.37;100.00;100409.38;5112237;28;20043;-55
2023/01/11 03:09:56;;;;;;;3.90;2.00;;;;;;;9.38;100.00;100414.50;5114336;28;20039;-53
2023/01/11 03:12:54;;;;;;;3.97;2.10;;;;;;;9.38;100.00;100418.91;5115620;28;20044;-52
2023/01/11 03:15:56;;;;;;;4.93;2.42;;;;;;;9.39;100.00;100418.78;5115199;28;20043;-52
2023/01/11 03:18:39;;;;;;;4.00;2.47;;;;;;;9.41;100.00;100416.09;5101159;28;20056;-61
2023/01/11 03:21:26;;;;;;;4.50;2.37;;;;;;;9.41;100.00;100422.16;5112370;28;20047;-60
2023/01/11 03:24:03;;;;;;;4.00;2.47;;;;;;;9.44;100.00;100424.59;5113167;28;20463;-61
2023/01/11 03:26:37;;;;;;;4.20;2.35;;;;;;;9.46;100.00;100413.97;5115126;27;20036;-61
2023/01/11 03:29:13;;;;;;;3.80;2.42;;;;;;;9.47;100.00;100415.66;5114916;28;20391;-59
2023/01/11 03:31:51;;;;;;;4.05;2.30;;;;;;;9.49;100.00;100411.16;5112499;28;20117;-59
2023/01/11 03:34:31;;;;;;;5.28;2.45;;;;;;;9.50;100.00;100422.50;5111418;28;20071;-55
2023/01/11 03:37:06;;;;;;;5.28;2.63;;;;;;;9.53;100.00;100412.63;5113614;28;20035;-54
2023/01/11 03:39:40;;;;;;;3.67;2.45;;;;;;;9.54;100.00;100418.72;5110910;28;20055;-54
2023/01/11 03:42:11;;;;;;;3.95;2.50;;;;;;;9.56;100.00;100414.22;5112390;28;20044;-54
2023/01/11 03:44:44;;;;;;;4.68;2.90;;;;;;;9.58;100.00;100414.94;5114562;28;20052;-53
2023/01/11 03:47:15;;;;;;;;;;;;;;;9.57;100.00;100437.75;5115246;28;20043;-54
2023/01/11 03:49:47;;;;;;;4.30;2.75;;;;;;;9.58;100.00;100431.53;5114746;28;19943;-59
2023/01/11 03:52:17;;;;;;;4.00;2.45;;;;;;;9.60;100.00;100427.03;5114374;28;20043;-61
2023/01/11 03:54:46;;;;;;;3.97;2.55;;;;;;;9.60;100.00;100418.31;5111077;28;20123;-59
2023/01/11 03:57:20;;;;;;;4.20;2.55;;;;;;;9.61;100.00;100419.97;5112868;28;20413;-52
2023/01/11 03:59:49;;;;;;;4.63;2.50;;;;;;;9.63;100.00;100423.34;5114679;28;20130;-59
2023/01/11 04:02:21;;;;;;;5.57;2.80;;;;;;;9.67;100.00;100416.09;5110290;28;20047;-54
2023/01/11 04:04:49;;;;;;;5.43;2.70;;;;;;;9.67;100.00;100419.56;5111269;28;20044;-54
2023/01/11 04:07:17;;;;;;;3.35;2.30;;;;;;;9.69;100.00;100412.41;5112733;28;20056;-53
2023/01/11 04:09:45;;;;;;;4.05;2.60;;;;;;;9.70;100.00;100423.78;5113835;28;20054;-54
2023/01/11 04:12:16;;;;;;;3.53;2.35;;;;;;;9.68;100.00;100426.50;5114381;28;20052;-56
2023/01/11 04:14:44;;;;;;;4.03;2.53;;;;;;;9.76;100.00;100429.47;5114238;28;20052;-53
2023/01/11 04:17:15;;;;;;;3.45;2.40;;;;;;;9.76;100.00;100431.22;5109701;27;20063;-53
2023/01/11 04:19:44;;;;;;;3.88;2.38;;;;;;;9.76;100.00;100432.09;5111556;28;20073;-54
2023/01/11 04:22:12;;;;;;;3.13;2.13;;;;;;;9.81;100.00;100439.63;5114257;28;20051;-53
2023/01/11 04:24:41;;;;;;;3.60;2.40;;;;;;;9.81;100.00;100431.75;5114148;28;20466;-53
2023/01/11 04:27:09;;;;;;;4.55;2.30;;;;;;;9.79;100.00;100431.88;5114137;28;20094;-54
2023/01/11 04:29:37;;;;;;;3.38;2.17;;;;;;;9.83;100.00;100440.38;5113328;28;20058;-53
2023/01/11 04:32:05;;;;;;;4.40;1.98;;;;;;;9.81;100.00;100440.47;5108346;28;20040;-53
2023/01/11 04:34:33;;;;;;;2.85;1.85;;;;;;;9.87;100.00;100444.47;5111491;28;20048;-54
2023/01/11 04:37:03;;;;;;;5.75;2.50;;;;;;;9.90;100.00;100443.44;5113949;28;20052;-60
2023/01/11 04:39:31;;;;;;;3.53;2.28;;;;;;;9.91;100.00;100439.84;5113934;28;20047;-60
2023/01/11 04:42:18;;;;;;;3.78;2.50;;;;;;;9.90;100.00;100453.94;5113700;28;20553;-53
2023/01/11 04:44:47;;;;;;;3.92;2.30;;;;;;;9.92;100.00;100452.88;5109831;28;20055;-55
2023/01/11 04:47:16;;;;;;;5.72;2.80;;;;;;;9.94;100.00;100458.03;5110995;28;20126;-55
2023/01/11 04:49:45;;;;;;;5.43;2.58;;;;;;;9.95;100.00;100457.94;5113731;28;20079;-54
2023/01/11 04:52:16;;;;;;;4.38;2.50;;;;;;;9.95;100.00;100459.69;5113622;28;20048;-54
2023/01/11 04:54:45;;;;;;;5.43;2.67;;;;;;;9.97;100.00;100463.91;5113700;28;20056;-53
2023/01/11 04:57:17;;;;;;;5.15;2.90;;;;;;;9.98;100.00;100455.09;5112104;28;20044;-55
2023/01/11 04:59:46;;;;;;;5.00;2.65;;;;;;;10.02;100.00;100468.00;5109819;28;20079;-55
2023/01/11 05:02:14;;;;;;;5.20;2.83;;;;;;;10.01;100.00;100467.19;5111760;28;20044;-59
2023/01/11 05:04:42;;;;;;;5.00;2.50;;;;;;;10.02;100.00;100473.25;5113228;28;20052;-60
2023/01/11 05:07:11;;;;;;;4.28;2.40;;;;;;;10.04;100.00;100476.63;5108798;28;20035;-59
2023/01/11 05:09:40;;;;;;;5.63;2.83;;;;;;;10.04;100.00;100487.16;5111088;28;20432;-60
2023/01/11 05:12:08;;;;;;;5.32;2.90;;;;;;;10.03;100.00;100477.56;5113244;28;20077;-60
2023/01/11 05:14:39;;;;;;;5.60;2.80;;;;;;;10.03;100.00;100475.78;5113343;27;20110;-60
2023/01/11 05:17:07;;;;;;;5.82;2.90;;;;;;;10.06;100.00;100478.22;5109026;28;20047;-60
2023/01/11 05:19:35;;;;;;;6.72;3.30;;;;;;;10.06;100.00;100479.97;5109521;28;20048;-60
2023/01/11 05:22:03;;;;;;;5.70;3.28;;;;;;;10.06;100.00;100479.97;5113202;28;20118;-60
2023/01/11 05:24:32;;;;;;;8.18;3.90;;;;;;;10.09;100.00;100485.88;5113235;28;20031;-53
2023/01/11 05:27:02;;;;;;;6.10;3.75;;;;;;;10.11;100.00;100493.66;5113034;28;20080;-53
2023/01/11 05:29:30;;;;;;;8.50;4.30;;;;;;;10.17;100.00;100487.13;5112920;28;20378;-60
2023/01/11 05:31:58;;;;;;;7.45;4.22;;;;;;;10.13;100.00;100492.59;5106954;28;20055;-60
2023/01/11 05:34:26;;;;;;;6.97;4.00;;;;;;;10.15;100.00;100498.56;5109540;28;20039;-60
2023/01/11 05:36:54;;;;;;;7.43;4.35;;;;;;;10.11;100.00;100501.53;5113020;27;20047;-60
2023/01/11 05:39:23;;;;;;;8.48;4.97;;;;;;;10.13;100.00;100502.28;5108815;28;20048;-60
2023/01/11 05:41:51;;;;;;;8.25;4.95;;;;;;;10.13;100.00;100505.75;5108159;28;20055;-52
2023/01/11 05:47:07;;;;;;;18.58;6.05;;;;;;;10.14;100.00;100503.94;5112717;28;20058;-53
2023/01/11 05:49:35;;;;;;;10.98;5.82;;;;;;;10.15;100.00;100498.56;5112797;28;20051;-61
2023/01/11 05:52:03;;;;;;;8.15;4.97;;;;;;;10.16;100.00;100496.81;5112798;28;20050;-60
2023/01/11 05:54:31;;;;;;;8.30;5.07;;;;;;;10.19;100.00;100501.00;5109378;28;20130;-53
2023/01/11 05:56:59;;;;;;;12.75;5.28;;;;;;;10.19;100.00;100508.91;5108590;28;20112;-54
2023/01/11 05:59:29;;;;;;;10.40;5.10;;;;;;;10.17;100.00;100502.91;5111194;28;20058;-54
2023/01/11 06:01:59;;;;;;;9.32;4.50;;;;;;;10.15;100.00;100503.00;5112467;28;20059;-53
2023/01/11 06:04:27;;;;;;;10.00;5.38;;;;;;;10.16;100.00;100502.06;5109907;28;20100;-54
2023/01/11 06:06:55;;;;;;;11.32;5.68;;;;;;;10.15;100.00;100503.84;5108538;28;20039;-53
2023/01/11 06:09:23;;;;;;;11.75;5.40;;;;;;;10.16;100.00;100504.69;5110709;28;20043;-55
2023/01/11 06:11:52;;;;;;;9.98;4.80;;;;;;;10.13;100.00;100504.91;5112732;28;20047;-52
2023/01/11 06:14:20;;;;;;;16.40;5.80;;;;;;;10.10;100.00;100503.34;5111206;28;20126;-53
2023/01/11 06:16:49;;;;;;;16.73;5.30;;;;;;;10.09;100.00;100503.41;5112448;28;20055;-52
2023/01/11 06:19:18;;;;;;;13.45;4.93;;;;;;;10.08;100.00;100520.16;5112374;28;20052;-54
2023/01/11 06:21:49;;;;;;;11.80;4.85;;;;;;;10.09;100.00;100508.66;5112530;28;20096;-53
2023/01/11 06:24:19;;;;;;;13.60;4.35;;;;;;;10.09;100.00;100521.81;5112525;28;20046;-53
2023/01/11 06:26:47;;;;;;;12.93;4.22;;;;;;;10.05;100.00;100520.34;5112544;28;20059;-52
2023/01/11 06:29:15;;;;;;;11.85;4.07;;;;;;;10.01;100.00;100524.13;5112578;28;20062;-52
2023/01/11 06:31:44;;;;;;;14.15;3.63;;;;;;;10.03;100.00;100540.63;5112909;28;20096;-54
2023/01/11 06:34:13;;;;;;;12.23;4.05;;;;;;;9.98;100.00;100541.78;5112606;28;20059;-53
2023/01/11 06:36:42;;;;;;;14.63;3.75;;;;;;;9.91;100.00;100542.28;5111878;28;20078;-60
2023/01/11 06:39:10;;;;;;;14.10;3.22;;;;;;;9.89;100.00;100531.06;5116124;28;20039;-60
2023/01/11 06:41:38;;;;;;;17.92;3.70;;;;;;;9.87;100.00;100541.66;5115031;28;20048;-59
2023/01/11 06:44:06;;;;;;;19.38;3.58;;;;;;;9.86;100.00;100542.59;5113556;28;20047;-59
2023/01/11 06:46:34;;;;;;;13.57;2.92;;;;;;;9.81;100.00;100545.53;5109404;28;20555;-60
2023/01/11 06:49:03;;;;;;;15.00;2.72;;;;;;;9.81;100.00;100553.41;5114872;28;20180;-53
2023/01/11 06:51:32;;;;;;;15.25;3.00;;;;;;;9.83;100.00;100553.31;5114875;28;20071;-54
2023/01/11 06:54:00;;;;;;;16.23;3.05;;;;;;;9.78;100.00;100560.66;5110770;27;20121;-53
2023/01/11 06:56:28;;;;;;;11.73;2.60;;;;;;;9.82;100.00;100562.13;5113767;28;20086;-53
2023/01/11 06:58:56;;;;;;;14.27;3.13;;;;;;;9.76;100.00;100567.78;5115956;28;20454;-53
2023/01/11 07:01:25;;;;;;;17.92;2.72;;;;;;;9.76;100.00;100575.66;5110220;28;20101;-53
2023/01/11 07:03:54;;;;;;;13.55;2.30;;;;;;;9.73;100.00;100578.50;5111499;28;20460;-53
2023/01/11 07:06:23;;;;;;;14.73;2.28;;;;;;;9.70;100.00;100579.53;5114427;28;20055;-52
2023/01/11 07:08:52;;;;;;;12.57;2.40;;;;;;;9.72;100.00;100589.94;5110365;27;20421;-53
2023/01/11 07:11:20;;;;;;;12.88;2.90;;;;;;;9.69;100.00;100598.84;5113297;27;20560;-54
2023/01/11 07:13:48;;;;;;;12.13;2.60;;;;;;;9.69;100.00;100606.72;5115194;28;20112;-53
2023/01/11 07:16:17;;;;;;;15.48;2.75;;;;;;;9.62;100.00;100603.66;5115085;28;20127;-53
2023/01/11 07:18:45;;;;;;;17.80;3.00;;;;;;;9.60;100.00;100602.94;5115259;28;20047;-53
2023/01/11 07:21:14;;;;;;;19.88;3.03;;;;;;;9.64;100.00;100611.47;5115306;28;20521;-53
2023/01/11 07:23:42;;;;;;;16.83;2.67;;;;;;;9.61;100.00;100632.66;5115395;28;20075;-54
2023/01/11 07:26:13;;;;;;;15.88;2.75;;;;;;;9.62;100.00;100636.97;5115320;28;20035;-52
2023/01/11 07:28:41;;;;;;;17.33;3.15;;;;;;;9.60;100.00;100631.00;5115190;28;20055;-51
2023/01/11 07:31:09;;;;;;;20.42;3.17;;;;;;;9.57;100.00;100625.91;5115161;28;20081;-52
2023/01/11 07:33:37;;;;;;;18.05;3.22;;;;;;;9.56;100.00;100613.75;5113964;28;20051;-53
2023/01/11 07:36:06;;;;;;;17.48;2.92;;;;;;;9.52;100.00;100615.72;5110828;28;20051;-54
2023/01/11 07:38:34;;;;;;;21.40;3.03;;;;;;;9.51;100.00;100635.03;5113632;28;20088;-52
2023/01/11 07:43:10;;;;;;;17.77;3.67;;;;;;;9.46;100.00;100631.84;5111041;28;20391;-60
2023/01/11 07:43:51;;;;;;;13.32;2.60;;;;;;;9.40;100.00;100637.50;5111299;28;20047;-60
2023/01/11 07:46:19;;;;;;;16.98;3.03;;;;;;;9.42;100.00;100643.47;5111949;28;20106;-60
2023/01/11 07:48:48;;;;;;;13.80;2.42;;;;;;;9.38;100.00;100647.25;5108657;28;20062;-53
2023/01/11 07:51:19;;;;;;;14.80;2.67;;;;;;;9.34;100.00;100658.88;5112632;28;20047;-53
2023/01/11 07:53:47;;;;;;;16.83;2.30;;;;;;;9.38;100.00;100663.84;5114122;28;20086;-60
2023/01/11 07:56:16;;;;;;;17.20;3.17;;;;;;;9.35;100.00;100663.19;5113030;28;20044;-60
2023/01/11 07:58:44;;;;;;;14.50;3.40;;;;;;;9.34;100.00;100672.84;5109888;28;20070;-61
2023/01/11 08:01:13;;;;;;;15.65;2.70;;;;;;;9.29;100.00;100681.00;5111641;28;20043;-60
2023/01/11 08:03:41;;;;;;;17.13;2.53;;;;;;;9.25;100.00;100683.91;5114155;28;20406;-60
2023/01/11 08:06:09;;;;;;;15.88;2.45;;;;;;;9.28;100.00;100686.34;5109181;28;20055;-60
2023/01/11 08:08:37;;;;;;;14.10;2.78;;;;;;;9.26;100.00;100690.88;5110400;28;20142;-60
2023/01/11 08:16:38;;;;;;;17.02;2.83;;;;;;;9.24;100.00;100698.84;5112961;28;20438;-60
2023/01/11 08:19:06;;;;;;;17.10;2.85;;;;;;;9.21;100.00;100698.16;5113954;27;20126;-60
2023/01/11 08:21:34;;;;;;;21.08;2.97;;;;;;;9.19;100.00;100713.16;5109452;28;20047;-60
2023/01/11 08:24:03;;;;;;;12.95;2.22;;;;;;;9.18;100.00;100717.56;5111040;28;20051;-60
2023/01/11 08:26:31;;;;;;;13.50;2.45;;;;;;;9.14;100.00;100723.94;5113903;28;20043;-60
2023/01/11 08:28:59;;;;;;;18.27;3.22;;;;;;;9.08;100.00;100737.41;5114139;28;20512;-60
2023/01/11 08:31:27;;;;;;;14.05;2.58;;;;;;;9.06;100.00;100739.31;5112014;28;20532;-60
2023/01/11 08:33:56;;;;;;;16.67;2.25;;;;;;;9.04;100.00;100742.03;5109650;28;20055;-60
2023/01/11 08:36:26;;;;;;;14.27;2.20;;;;;;;9.02;100.00;100748.28;5111036;28;20047;-54
2023/01/11 08:38:55;;;;;;;16.02;2.97;;;;;;;9.00;100.00;100755.41;5113467;28;20096;-60
2023/01/11 08:41:24;;;;;;;12.90;2.88;;;;;;;8.92;100.00;100751.47;5113075;28;20142;-52
2023/01/11 08:43:52;;;;;;;17.90;2.47;;;;;;;8.93;100.00;100755.78;5109285;28;20514;-60
2023/01/11 08:46:20;;;;;;;15.27;2.33;;;;;;;8.95;100.00;100759.16;5108282;28;20066;-54
2023/01/11 08:48:49;;;;;;;16.77;2.63;;;;;;;8.91;100.00;100773.38;5113945;28;20043;-52
2023/01/11 08:51:18;;;;;;;16.48;2.78;;;;;;;8.95;100.00;100776.66;5113315;28;20039;-49
2023/01/11 08:53:46;;;;;;;16.13;2.58;;;;;;;8.91;100.00;100785.66;5113128;28;20052;-52
2023/01/11 08:56:14;;;;;;;11.82;2.47;;;;;;;8.92;100.00;100780.31;5112062;28;20506;-53
2023/01/11 08:58:43;;;;;;;16.77;2.45;;;;;;;8.91;100.00;100789.13;5108845;28;20165;-53
2023/01/11 09:01:11;;;;;;;24.17;2.45;;;;;;;8.91;100.00;100791.72;5109464;28;20052;-54
2023/01/11 09:03:39;;;;;;;15.90;2.40;;;;;;;8.96;100.00;100799.34;5113549;28;20051;-52
2023/01/11 09:06:07;;;;;;;12.02;2.85;;;;;;;8.93;100.00;100800.38;5110559;28;20539;-53
2023/01/11 09:08:37;;;;;;;17.15;2.90;;;;;;;8.93;100.00;100799.50;5108654;28;20135;-53
2023/01/11 09:11:52;;;;;;;14.93;2.60;;;;;;;8.96;100.00;100807.22;5112565;28;20058;-53
2023/01/11 09:13:54;;;;;;;17.45;2.50;;;;;;;8.93;100.00;100805.63;5113234;28;20044;-53
2023/01/11 09:16:22;;;;;;;14.10;2.92;;;;;;;8.95;100.00;100800.28;5111513;28;20047;-52
2023/01/11 09:18:50;;;;;;;11.95;2.28;;;;;;;8.94;100.00;100812.56;5111532;28;20082;-53
2023/01/11 09:21:18;;;;;;;18.45;3.30;;;;;;;8.90;100.00;100812.81;5108934;28;20118;-49
2023/01/11 09:23:48;;;;;;;14.27;2.63;;;;;;;8.85;100.00;100812.22;5109072;28;20162;-49
2023/01/11 09:26:16;;;;;;;19.20;2.67;;;;;;;8.85;100.00;100804.38;5112864;28;20043;-52
2023/01/11 09:28:44;;;;;;;15.27;2.95;;;;;;;8.90;100.00;100815.44;5112469;28;20146;-53
2023/01/11 09:31:12;;;;;;;16.52;3.03;;;;;;;8.85;100.00;100822.72;5108261;28;20458;-53
2023/01/11 09:33:41;;;;;;;14.10;2.90;;;;;;;8.84;100.00;100821.06;5107446;28;20123;-54
2023/01/11 09:36:09;;;;;;;12.02;2.65;;;;;;;8.82;100.00;100826.41;5112738;28;20352;-53
2023/01/11 09:38:38;;;;;;;15.70;2.92;;;;;;;8.79;100.00;100834.41;5112854;28;20036;-54
2023/01/11 09:41:22;;;;;;;14.98;2.80;;;;;;;8.79;100.00;100832.66;5112892;28;20047;-52
2023/01/11 09:43:56;;;;;;;13.70;2.95;;;;;;;8.82;100.00;100833.41;5108847;28;20043;-60
2023/01/11 09:46:27;;;;;;;14.45;2.88;;;;;;;8.74;100.00;100841.69;5106462;28;20059;-60
2023/01/11 09:48:59;;;;;;;13.02;2.58;;;;;;;8.72;100.00;100835.72;5112583;28;20387;-60
2023/01/11 09:51:33;;;;;;;23.00;4.30;;;;;;;8.65;100.00;100842.25;5112768;28;20130;-60
2023/01/11 09:54:06;;;;;;;14.65;2.80;;;;;;;8.65;100.00;100847.50;5112661;28;20048;-60
2023/01/11 09:56:41;;;;;;;;;;;;;;;8.58;100.00;100845.19;5113149;28;20082;-60
2023/01/11 09:59:19;;;;;;;15.65;2.90;;;;;;;8.51;100.00;100846.50;5112067;28;19928;-53
2023/01/11 10:01:54;;;;;;;16.58;3.28;;;;;;;8.49;100.00;100852.75;5104954;28;20525;-60
2023/01/11 10:04:39;;;;;;;16.55;2.70;;;;;;;8.57;100.00;100851.38;5110288;28;20140;-51
2023/01/11 10:07:24;;;;;;;19.63;3.22;;;;;;;8.53;100.00;100857.72;5114711;28;20532;-50
2023/01/11 10:10:06;;;;;;;15.65;2.78;;;;;;;8.50;100.00;100859.69;5116556;28;20406;-52
2023/01/11 10:13:04;;;;;;;14.85;2.47;;;;;;;8.58;100.00;100866.19;5116683;28;20406;-52
2023/01/11 10:16:00;;;;;;;19.98;3.20;;;;;;;8.62;100.00;100862.44;5116470;28;20105;-52
2023/01/11 10:19:01;;;;;;;21.30;2.88;;;;;;;8.62;100.00;100865.06;5116563;28;20044;-49
2023/01/11 10:21:53;;;;;;;14.68;2.45;;;;;;;8.66;100.00;100860.50;5111821;28;20521;-52
2023/01/11 10:24:27;;;;;;;13.02;2.53;;;;;;;8.61;100.00;100862.53;5112372;28;20131;-53
2023/01/11 10:26:57;;;;;;;19.50;2.90;;;;;;;8.62;100.00;100849.34;5116187;28;20039;-49
2023/01/11 10:29:48;;;;;;;14.15;2.60;;;;;;;8.67;100.00;100862.19;5114092;28;20040;-52
2023/01/11 10:32:33;;;;;;;15.75;2.58;;;;;;;8.65;100.00;100865.84;5110280;28;20478;-60
2023/01/11 10:35:28;;;;;;;14.93;2.65;;;;;;;8.68;100.00;100858.63;5113741;28;21105;-60
2023/01/11 10:38:12;;;;;;;13.85;2.30;;;;;;;8.75;100.00;100865.22;5111487;28;20057;-52
2023/01/11 10:43:34;;;;;;;12.10;2.10;;;;;;;8.77;100.00;100862.53;5116249;28;20561;-60
2023/01/11 10:46:08;;;;;;;16.67;2.97;;;;;;;8.87;100.00;100862.84;5116101;28;20055;-60
2023/01/11 10:48:38;;;;;;;19.52;2.72;;;;;;;8.88;100.00;100873.22;5115933;28;20040;-60
2023/01/11 10:51:18;;;;;;;19.02;2.70;;;;;;;8.95;100.00;100877.19;5115762;28;20054;-60
2023/01/11 10:53:59;;;;;;;15.77;2.63;;;;;;;9.03;100.00;100868.88;5115969;28;20360;-60
2023/01/11 10:56:48;;;;;;;13.15;2.65;;;;;;;9.08;100.00;100864.22;5115590;28;20067;-50
2023/01/11 10:59:55;;;;;;;16.50;2.78;;;;;;;9.10;100.00;100861.50;5111122;28;20521;-50
2023/01/11 11:02:48;;;;;;;22.88;2.97;;;;;;;9.14;100.00;100871.72;5112248;28;20044;-60
2023/01/11 11:05:30;;;;;;;22.92;2.97;;;;;;;9.19;100.00;100868.84;5113752;28;20061;-53
2023/01/11 11:08:02;;;;;;;24.20;3.40;;;;;;;9.23;100.00;100869.47;5115625;28;20055;-53
2023/01/11 11:10:37;;;;;;;15.10;2.97;;;;;;;9.31;100.00;100872.50;5115422;28;20044;-60
2023/01/11 11:13:13;;;;;;;14.68;2.72;;;;;;;9.35;100.00;100863.50;5115561;28;20061;-60
2023/01/11 11:15:50;;;;;;;17.73;2.40;;;;;;;9.36;100.00;100867.81;5111904;28;20062;-60
2023/01/11 11:18:22;;;;;;;15.35;2.42;;;;;;;9.34;100.00;100874.97;5109988;28;20052;-60
2023/01/11 11:20:50;;;;;;;14.50;2.33;;;;;;;9.36;100.00;100873.06;5115518;28;20055;-60
2023/01/11 11:23:23;;;;;;;15.23;2.95;;;;;;;9.34;100.00;100867.06;5115324;28;20440;-60
2023/01/11 11:25:57;;;;;;;15.82;2.63;;;;;;;9.29;100.00;100869.97;5115314;28;20063;-61
2023/01/11 11:28:27;;;;;;;15.23;2.38;;;;;;;9.39;100.00;100866.78;5115055;28;20093;-60
2023/01/11 11:30:58;;;;;;;18.77;2.90;;;;;;;9.35;100.00;100875.78;5115175;28;20498;-61
2023/01/11 11:33:33;;;;;;;14.35;2.58;;;;;;;9.42;100.00;100866.59;5113645;28;20088;-61
2023/01/11 11:36:04;;;;;;;14.48;2.00;;;;;;;9.37;100.00;100864.25;5110223;28;20234;-61
2023/01/11 11:38:34;;;;;;;15.85;2.63;;;;;;;9.32;100.00;100861.06;5113478;27;20043;-61
2023/01/11 11:41:08;;;;;;;15.93;2.72;;;;;;;9.27;100.00;100871.84;5115336;27;20445;-60
2023/01/11 11:43:38;;;;;;;18.30;2.88;;;;;;;9.32;100.00;100874.19;5113688;28;20058;-60
2023/01/11 11:46:26;;;;;;;21.73;2.83;;;;;;;9.32;100.00;100873.34;5114941;28;20047;-51
2023/01/11 11:49:16;;;;;;;17.73;2.35;;;;;;;9.38;100.00;100868.59;5114415;28;20070;-51
2023/01/11 11:51:46;;;;;;;14.32;2.78;;;;;;;9.39;100.00;100870.25;5110284;28;20040;-52
2023/01/11 11:54:21;;;;;;;15.65;2.28;;;;;;;9.40;100.00;100877.19;5110102;28;20039;-52
2023/01/11 11:56:49;;;;;;;15.93;2.20;;;;;;;9.43;100.00;100882.25;5111888;28;20086;-52
2023/01/11 11:59:20;;;;;;;15.20;2.17;;;;;;;9.37;100.00;100884.44;5110447;28;20122;-52
2023/01/11 12:02:17;;;;;;;9.40;2.20;;;;;;;9.38;100.00;100888.72;5112871;28;20048;-52
2023/01/11 12:05:13;;;;;;;15.32;2.58;;;;;;;9.39;100.00;100893.03;5114266;28;20058;-61
2023/01/11 12:08:18;;;;;;;19.45;2.78;;;;;;;9.39;100.00;100900.91;5112647;28;20071;-52